createdAt,value
2022-11-30T00:01:31.679Z,27.50
2022-11-30T00:03:59.430Z,27.10
2022-11-30T00:06:27.061Z,27.40
2022-11-30T00:08:55.706Z,28.80
2022-11-30T00:11:24.574Z,28.00
2022-11-30T00:13:52.737Z,27.90
2022-11-30T00:16:20.759Z,28.60
2022-11-30T00:18:48.555Z,28.10
2022-11-30T00:21:16.352Z,28.70
2022-11-30T00:23:45.066Z,29.50
2022-11-30T00:26:14.732Z,29.80
2022-11-30T00:28:43.411Z,29.70
2022-11-30T00:31:12.672Z,29.00
2022-11-30T00:33:40.577Z,29.80
2022-11-30T00:36:10.831Z,30.60
2022-11-30T00:38:38.940Z,29.60
2022-11-30T00:41:07.348Z,30.80
2022-11-30T00:43:35.048Z,32.30
2022-11-30T00:46:02.882Z,30.30
2022-11-30T00:48:30.596Z,29.00
2022-11-30T00:50:58.490Z,31.90
2022-11-30T00:53:26.265Z,28.30
2022-11-30T00:55:54.712Z,30.30
2022-11-30T00:58:22.871Z,31.90
2022-11-30T01:00:51.197Z,32.00
2022-11-30T01:03:18.840Z,29.50
2022-11-30T01:05:46.515Z,29.60
2022-11-30T01:08:14.279Z,29.80
2022-11-30T01:10:42.881Z,31.10
2022-11-30T01:13:12.161Z,30.50
2022-11-30T01:15:41.315Z,30.40
2022-11-30T01:18:09.530Z,32.20
2022-11-30T01:20:40.317Z,30.10
2022-11-30T01:23:08.077Z,31.10
2022-11-30T01:25:35.790Z,29.50
2022-11-30T01:28:03.689Z,32.60
2022-11-30T01:30:31.450Z,30.90
2022-11-30T01:33:03.578Z,31.30
2022-11-30T01:35:31.461Z,31.30
2022-11-30T01:37:59.222Z,31.20
2022-11-30T01:40:27.084Z,31.80
2022-11-30T01:42:55.245Z,30.40
2022-11-30T01:45:23.016Z,29.90
2022-11-30T01:47:56.521Z,31.90
2022-11-30T01:50:29.481Z,30.40
2022-11-30T01:52:57.777Z,32.00
2022-11-30T01:55:29.800Z,29.30
2022-11-30T01:57:59.855Z,30.60
2022-11-30T02:00:27.929Z,29.80
2022-11-30T02:02:56.178Z,29.90
2022-11-30T02:05:24.811Z,31.20
2022-11-30T02:07:53.029Z,29.40
2022-11-30T02:10:28.705Z,31.40
2022-11-30T02:13:14.391Z,29.30
2022-11-30T02:15:55.226Z,29.70
2022-11-30T02:18:37.779Z,32.20
2022-11-30T02:21:15.519Z,27.60
2022-11-30T02:24:00.034Z,29.50
2022-11-30T02:26:33.893Z,28.00
2022-11-30T02:29:04.466Z,31.10
2022-11-30T02:31:41.174Z,30.20
2022-11-30T02:34:09.918Z,30.80
2022-11-30T02:36:37.703Z,28.30
2022-11-30T02:39:06.005Z,29.50
2022-11-30T02:41:40.364Z,28.80
2022-11-30T02:44:09.982Z,29.60
2022-11-30T02:46:37.579Z,28.20
2022-11-30T02:49:09.298Z,29.90
2022-11-30T02:51:38.186Z,28.40
2022-11-30T02:54:06.052Z,30.80
2022-11-30T02:56:33.852Z,29.40
2022-11-30T02:59:01.670Z,30.70
2022-11-30T03:01:29.507Z,29.60
2022-11-30T03:03:57.513Z,28.20
2022-11-30T03:06:25.300Z,29.80
2022-11-30T03:08:53.452Z,28.30
2022-11-30T03:11:21.347Z,26.90
2022-11-30T03:13:49.082Z,29.70
2022-11-30T03:16:16.746Z,29.40
2022-11-30T03:18:44.615Z,30.40
2022-11-30T03:21:13.129Z,28.50
2022-11-30T03:23:41.111Z,28.40
2022-11-30T03:26:09.572Z,28.70
2022-11-30T03:28:37.604Z,29.20
2022-11-30T03:31:05.875Z,29.60
2022-11-30T03:33:33.856Z,28.60
2022-11-30T03:36:06.337Z,29.40
2022-11-30T03:38:35.619Z,25.60
2022-11-30T03:41:04.744Z,29.50
2022-11-30T03:43:33.023Z,27.90
2022-11-30T03:46:01.251Z,27.80
2022-11-30T03:48:29.131Z,31.10
2022-11-30T03:50:57.332Z,30.90
2022-11-30T03:53:25.505Z,26.40
2022-11-30T03:55:57.855Z,29.70
2022-11-30T03:58:26.330Z,30.60
2022-11-30T04:01:01.776Z,29.00
2022-11-30T04:03:29.944Z,27.90
2022-11-30T04:05:57.997Z,28.50
2022-11-30T04:08:26.169Z,28.40
2022-11-30T04:10:55.921Z,31.50
2022-11-30T04:13:24.749Z,28.90
2022-11-30T04:15:53.628Z,31.60
2022-11-30T04:18:22.362Z,29.00
2022-11-30T04:20:50.696Z,27.00
2022-11-30T04:23:18.911Z,27.50
2022-11-30T04:25:48.147Z,29.10
2022-11-30T04:28:17.102Z,29.90
2022-11-30T04:30:45.990Z,29.70
2022-11-30T04:33:14.707Z,26.30
2022-11-30T04:35:44.281Z,27.50
2022-11-30T04:38:12.359Z,27.60
2022-11-30T04:40:41.053Z,27.50
2022-11-30T04:43:09.008Z,28.10
2022-11-30T04:45:36.852Z,27.00
2022-11-30T04:48:05.350Z,24.80
2022-11-30T04:50:33.374Z,27.50
2022-11-30T04:53:01.062Z,30.10
2022-11-30T04:55:29.417Z,27.80
2022-11-30T04:57:57.123Z,27.90
2022-11-30T05:00:25.706Z,27.70
2022-11-30T05:02:55.621Z,27.70
2022-11-30T05:05:23.418Z,26.10
2022-11-30T05:07:55.127Z,29.70
2022-11-30T05:10:23.613Z,28.00
2022-11-30T05:12:52.824Z,25.50
2022-11-30T05:15:20.987Z,25.70
2022-11-30T05:17:48.852Z,27.10
2022-11-30T05:20:17.172Z,28.00
2022-11-30T05:22:45.016Z,28.40
2022-11-30T05:25:12.860Z,27.60
2022-11-30T05:27:41.068Z,27.30
2022-11-30T05:30:10.185Z,27.30
2022-11-30T05:32:37.829Z,26.30
2022-11-30T05:35:06.231Z,28.50
2022-11-30T05:37:34.137Z,28.40
2022-11-30T05:40:01.825Z,29.10
2022-11-30T05:42:29.407Z,27.90
2022-11-30T05:44:57.115Z,29.30
2022-11-30T05:47:24.981Z,27.30
2022-11-30T05:49:52.643Z,25.70
2022-11-30T05:52:20.411Z,25.90
2022-11-30T05:54:48.312Z,25.60
2022-11-30T05:57:16.036Z,27.00
2022-11-30T05:59:43.837Z,26.80
2022-11-30T06:02:11.726Z,26.60
2022-11-30T06:04:40.465Z,26.20
2022-11-30T06:07:11.924Z,25.70
2022-11-30T06:09:40.381Z,25.10
2022-11-30T06:12:08.386Z,24.70
2022-11-30T06:14:36.221Z,26.50
2022-11-30T06:17:03.949Z,24.00
2022-11-30T06:19:31.944Z,26.10
2022-11-30T06:21:59.771Z,26.30
2022-11-30T06:24:27.429Z,27.00
2022-11-30T06:26:55.245Z,25.00
2022-11-30T06:29:23.817Z,26.00
2022-11-30T06:31:51.713Z,26.80
2022-11-30T06:34:20.343Z,26.50
2022-11-30T06:36:49.769Z,25.90
2022-11-30T06:39:26.925Z,25.50
2022-11-30T06:42:05.182Z,26.10
2022-11-30T06:44:32.972Z,24.40
2022-11-30T06:47:00.688Z,23.70
2022-11-30T06:49:28.451Z,25.90
2022-11-30T06:51:56.824Z,23.50
2022-11-30T06:54:25.001Z,25.90
2022-11-30T06:56:52.694Z,23.70
2022-11-30T06:59:20.430Z,22.70
2022-11-30T07:01:48.037Z,22.90
2022-11-30T07:04:15.821Z,21.90
2022-11-30T07:06:43.623Z,22.40
2022-11-30T07:09:13.527Z,22.60
2022-11-30T07:11:41.693Z,23.10
2022-11-30T07:14:09.361Z,22.50
2022-11-30T07:16:37.085Z,23.30
2022-11-30T07:19:05.111Z,23.90
2022-11-30T07:21:32.714Z,23.30
2022-11-30T07:24:18.948Z,24.20
2022-11-30T07:26:47.208Z,25.20
2022-11-30T07:29:15.029Z,24.40
2022-11-30T07:31:43.395Z,23.70
2022-11-30T07:34:12.970Z,21.80
2022-11-30T07:36:40.736Z,21.80
2022-11-30T07:39:08.911Z,20.20
2022-11-30T07:41:36.557Z,22.80
2022-11-30T07:44:05.292Z,21.90
2022-11-30T07:46:35.921Z,21.70
2022-11-30T07:49:04.539Z,23.00
2022-11-30T07:51:32.721Z,21.50
2022-11-30T07:54:01.250Z,23.30
2022-11-30T07:56:29.275Z,22.00
2022-11-30T07:58:58.496Z,21.00
2022-11-30T08:01:28.597Z,20.90
2022-11-30T08:03:56.623Z,21.30
2022-11-30T08:06:28.648Z,22.70
2022-11-30T08:08:58.308Z,19.50
2022-11-30T08:11:28.058Z,20.70
2022-11-30T08:13:56.340Z,21.50
2022-11-30T08:16:25.178Z,22.70
2022-11-30T08:18:53.113Z,20.50
2022-11-30T08:21:21.259Z,22.30
2022-11-30T08:23:51.301Z,22.60
2022-11-30T08:26:20.252Z,20.70
2022-11-30T08:28:49.285Z,21.60
2022-11-30T08:31:21.507Z,23.50
2022-11-30T08:33:50.325Z,20.60
2022-11-30T08:36:20.003Z,19.80
2022-11-30T08:38:48.916Z,22.40
2022-11-30T08:41:19.240Z,21.40
2022-11-30T08:43:47.403Z,22.80
2022-11-30T08:46:49.228Z,21.20
2022-11-30T08:49:20.958Z,20.60
2022-11-30T08:54:43.011Z,19.40
2022-11-30T08:57:10.921Z,19.40
2022-11-30T08:59:38.708Z,20.60
2022-11-30T09:02:06.628Z,20.60
2022-11-30T09:04:35.142Z,20.50
2022-11-30T09:07:04.046Z,20.80
2022-11-30T09:09:32.831Z,21.70
2022-11-30T09:12:00.820Z,20.40
2022-11-30T09:14:28.977Z,22.40
2022-11-30T09:16:56.944Z,22.50
2022-11-30T09:19:25.012Z,21.50
2022-11-30T09:21:53.104Z,21.30
2022-11-30T09:24:21.183Z,19.90
2022-11-30T09:26:49.143Z,20.30
2022-11-30T09:29:16.835Z,21.70
2022-11-30T09:31:44.564Z,22.60
2022-11-30T09:34:14.886Z,21.10
2022-11-30T09:36:42.733Z,20.50
2022-11-30T09:39:11.112Z,21.10
2022-11-30T09:41:48.878Z,23.90
2022-11-30T09:44:23.553Z,20.80
2022-11-30T09:46:51.502Z,21.50
2022-11-30T09:49:24.186Z,20.50
2022-11-30T09:51:54.733Z,21.60
2022-11-30T09:54:38.159Z,20.20
2022-11-30T09:57:25.465Z,20.80
2022-11-30T09:59:57.743Z,19.30
2022-11-30T10:02:33.935Z,21.20
2022-11-30T10:05:02.183Z,17.60
2022-11-30T10:07:30.034Z,20.20
2022-11-30T10:10:44.746Z,20.20
2022-11-30T10:13:35.174Z,18.80
2022-11-30T10:16:07.287Z,20.50
2022-11-30T10:18:35.101Z,19.50
2022-11-30T10:21:03.806Z,18.90
2022-11-30T10:23:41.203Z,18.50
2022-11-30T10:26:13.974Z,21.50
2022-11-30T10:28:47.505Z,33.90
2022-11-30T10:31:16.336Z,21.60
2022-11-30T10:33:49.146Z,21.20
2022-11-30T10:36:17.110Z,26.50
2022-11-30T10:38:56.649Z,23.10
2022-11-30T10:41:50.798Z,25.40
2022-11-30T10:44:23.009Z,22.10
2022-11-30T10:47:13.867Z,21.50
2022-11-30T10:49:45.554Z,19.50
2022-11-30T10:52:17.629Z,21.80
2022-11-30T10:54:45.795Z,20.30
2022-11-30T10:57:14.786Z,22.30
2022-11-30T10:59:44.683Z,19.00
2022-11-30T11:02:31.512Z,20.00
2022-11-30T11:05:19.518Z,20.70
2022-11-30T11:08:01.247Z,21.10
2022-11-30T11:10:52.181Z,21.10
2022-11-30T11:13:40.534Z,22.20
2022-11-30T11:16:10.193Z,22.20
2022-11-30T11:19:04.177Z,21.60
2022-11-30T11:21:31.866Z,20.50
2022-11-30T11:23:59.472Z,22.40
2022-11-30T11:26:28.292Z,20.30
2022-11-30T11:29:02.748Z,21.10
2022-11-30T11:31:36.266Z,20.90
2022-11-30T11:34:05.641Z,23.40
2022-11-30T11:36:34.393Z,23.90
2022-11-30T11:39:03.699Z,21.90
2022-11-30T11:41:34.016Z,23.20
2022-11-30T11:44:21.349Z,22.20
2022-11-30T11:46:59.882Z,22.60
2022-11-30T11:49:32.634Z,19.60
2022-11-30T11:52:01.545Z,19.50
2022-11-30T11:54:48.847Z,20.80
2022-11-30T11:57:18.569Z,20.80
2022-11-30T12:00:02.007Z,20.30
2022-11-30T12:02:48.856Z,18.90
2022-11-30T12:05:19.967Z,19.60
2022-11-30T12:08:04.046Z,19.90
2022-11-30T12:10:51.883Z,19.70
2022-11-30T12:13:25.623Z,25.10
2022-11-30T12:15:53.733Z,23.90
2022-11-30T12:18:25.036Z,19.90
2022-11-30T12:20:56.367Z,18.20
2022-11-30T12:23:43.400Z,20.10
2022-11-30T12:29:01.861Z,16.90
2022-11-30T12:31:57.017Z,20.30
2022-11-30T12:34:37.732Z,18.90
2022-11-30T12:37:18.398Z,18.40
2022-11-30T12:40:06.437Z,21.70
2022-11-30T12:42:43.840Z,17.60
2022-11-30T12:45:23.899Z,17.90
2022-11-30T12:48:05.669Z,18.10
2022-11-30T12:50:38.043Z,19.30
2022-11-30T12:53:05.902Z,20.50
2022-11-30T12:55:48.446Z,18.80
2022-11-30T12:58:22.567Z,19.40
2022-11-30T13:01:02.913Z,19.90
2022-11-30T13:03:43.053Z,18.00
2022-11-30T13:06:16.983Z,18.40
2022-11-30T13:08:45.124Z,18.40
2022-11-30T13:11:18.727Z,18.50
2022-11-30T13:13:50.157Z,18.70
2022-11-30T13:16:18.878Z,17.80
2022-11-30T13:18:47.189Z,19.70
2022-11-30T13:21:28.040Z,19.30
2022-11-30T13:24:05.046Z,20.00
2022-11-30T13:26:48.207Z,21.90
2022-11-30T13:29:39.578Z,37.30
2022-11-30T13:32:48.544Z,32.90
2022-11-30T13:35:22.983Z,23.90
2022-11-30T13:38:28.210Z,39.40
2022-11-30T13:41:03.357Z,27.20
2022-11-30T13:43:35.209Z,36.80
2022-11-30T13:46:08.148Z,32.30
2022-11-30T13:48:41.453Z,22.30
2022-11-30T13:51:09.570Z,24.30
2022-11-30T13:53:39.253Z,26.90
2022-11-30T13:56:19.829Z,22.10
2022-11-30T13:59:20.249Z,21.70
2022-11-30T14:01:48.438Z,27.20
2022-11-30T14:04:16.460Z,23.00
2022-11-30T14:06:44.659Z,22.70
2022-11-30T14:09:17.491Z,24.30
2022-11-30T14:11:45.931Z,23.20
2022-11-30T14:14:32.850Z,23.20
2022-11-30T14:19:29.375Z,21.80
2022-11-30T14:21:58.612Z,20.30
2022-11-30T14:24:26.482Z,21.00
2022-11-30T14:26:54.552Z,21.00
2022-11-30T14:29:28.920Z,21.80
2022-11-30T14:32:12.597Z,22.20
2022-11-30T14:34:49.461Z,21.90
2022-11-30T14:37:25.255Z,21.00
2022-11-30T14:39:56.904Z,22.30
2022-11-30T14:42:28.711Z,23.10
2022-11-30T14:44:58.452Z,23.50
2022-11-30T14:47:28.083Z,20.00
2022-11-30T14:49:57.510Z,21.90
2022-11-30T14:52:37.661Z,22.60
2022-11-30T14:55:13.535Z,21.90
2022-11-30T14:58:06.928Z,21.10
2022-11-30T15:00:39.632Z,21.70
2022-11-30T15:03:17.900Z,22.00
2022-11-30T15:05:46.085Z,23.40
2022-11-30T15:08:15.283Z,24.00
2022-11-30T15:10:43.240Z,24.40
2022-11-30T15:13:13.340Z,22.20
2022-11-30T15:15:50.643Z,22.50
2022-11-30T15:18:19.435Z,23.50
2022-11-30T15:20:53.963Z,25.20
2022-11-30T15:23:22.481Z,23.30
2022-11-30T15:26:05.618Z,21.40
2022-11-30T15:28:37.398Z,22.40
2022-11-30T15:31:07.024Z,23.20
2022-11-30T15:33:40.828Z,25.40
2022-11-30T15:36:33.134Z,22.40
2022-11-30T15:38:56.893Z,23.90
2022-11-30T15:41:25.204Z,23.50
2022-11-30T15:43:54.714Z,26.80
2022-11-30T15:46:46.419Z,24.20
2022-11-30T15:49:17.384Z,25.90
2022-11-30T15:51:46.432Z,22.60
2022-11-30T15:54:15.557Z,25.20
2022-11-30T15:56:55.312Z,21.60
2022-11-30T15:59:24.978Z,22.20
2022-11-30T16:02:02.620Z,23.70
2022-11-30T16:04:49.735Z,21.10
2022-11-30T16:07:18.606Z,23.20
2022-11-30T16:09:47.214Z,23.00
2022-11-30T16:12:26.092Z,21.60
2022-11-30T16:14:53.891Z,22.60
2022-11-30T16:17:22.168Z,22.80
2022-11-30T16:19:50.069Z,22.60
2022-11-30T16:22:17.976Z,22.40
2022-11-30T16:24:45.766Z,22.80
2022-11-30T16:27:17.521Z,22.50
2022-11-30T16:29:50.657Z,21.00
2022-11-30T16:32:20.444Z,24.90
2022-11-30T16:34:53.002Z,22.10
2022-11-30T16:37:22.094Z,22.00
2022-11-30T16:39:51.073Z,23.60
2022-11-30T16:42:20.713Z,21.60
2022-11-30T16:44:48.662Z,22.50
2022-11-30T16:47:16.937Z,21.10
2022-11-30T16:49:45.493Z,22.60
2022-11-30T16:52:16.345Z,21.40
2022-11-30T16:54:44.424Z,21.60
2022-11-30T16:57:12.285Z,21.50
2022-11-30T16:59:40.368Z,20.50
2022-11-30T17:02:15.132Z,20.80
2022-11-30T17:04:43.365Z,21.90
2022-11-30T17:07:11.664Z,21.90
2022-11-30T17:09:39.708Z,20.60
2022-11-30T17:12:10.553Z,21.10
2022-11-30T17:14:39.225Z,21.20
2022-11-30T17:17:07.081Z,22.50
2022-11-30T17:19:35.931Z,19.80
2022-11-30T17:22:04.150Z,21.30
2022-11-30T17:24:32.430Z,21.30
2022-11-30T17:27:00.705Z,20.60
2022-11-30T17:29:28.872Z,20.80
2022-11-30T17:31:56.946Z,20.30
2022-11-30T17:34:26.252Z,21.40
2022-11-30T17:36:56.565Z,20.10
2022-11-30T17:39:24.212Z,20.50
2022-11-30T17:41:52.487Z,20.00
2022-11-30T17:44:20.462Z,21.30
2022-11-30T17:46:48.626Z,21.70
2022-11-30T17:49:17.227Z,22.50
2022-11-30T17:51:45.733Z,24.30
2022-11-30T17:54:14.378Z,31.90
2022-11-30T17:56:44.518Z,24.40
2022-11-30T17:59:13.603Z,23.90
2022-11-30T18:01:42.664Z,24.10
2022-11-30T18:04:10.778Z,22.80
2022-11-30T18:06:41.398Z,20.50
2022-11-30T18:09:09.673Z,22.10
2022-11-30T18:11:37.541Z,25.40
2022-11-30T18:14:05.408Z,22.20
2022-11-30T18:16:36.561Z,20.30
2022-11-30T18:19:12.027Z,20.60
2022-11-30T18:21:40.883Z,20.80
2022-11-30T18:24:09.977Z,21.40
2022-11-30T18:26:39.175Z,21.20
2022-11-30T18:29:07.856Z,23.80
2022-11-30T18:31:36.546Z,21.30
2022-11-30T18:34:06.258Z,20.80
2022-11-30T18:36:34.527Z,20.10
2022-11-30T18:39:02.340Z,20.90
2022-11-30T18:41:30.549Z,22.00
2022-11-30T18:43:58.737Z,21.80
2022-11-30T18:46:26.572Z,21.30
2022-11-30T18:48:54.695Z,21.50
2022-11-30T18:51:25.199Z,27.80
2022-11-30T18:53:57.771Z,23.80
2022-11-30T18:56:26.781Z,22.80
2022-11-30T18:58:56.565Z,22.40
2022-11-30T19:01:25.014Z,24.40
2022-11-30T19:03:53.770Z,22.50
2022-11-30T19:06:21.608Z,24.10
2022-11-30T19:08:49.298Z,26.20
2022-11-30T19:11:17.487Z,23.40
2022-11-30T19:13:46.039Z,22.70
2022-11-30T19:16:15.102Z,23.10
2022-11-30T19:18:45.025Z,21.60
2022-11-30T19:21:14.436Z,20.40
2022-11-30T19:23:42.197Z,21.30
2022-11-30T19:26:10.584Z,21.50
2022-11-30T19:28:38.852Z,20.50
2022-11-30T19:31:11.210Z,22.70
2022-11-30T19:33:39.809Z,21.50
2022-11-30T19:36:10.340Z,20.80
2022-11-30T19:38:38.637Z,21.80
2022-11-30T19:41:09.817Z,21.40
2022-11-30T19:43:38.495Z,27.10
2022-11-30T19:46:07.595Z,22.80
2022-11-30T19:48:36.374Z,22.10
2022-11-30T19:51:05.936Z,21.50
2022-11-30T19:53:34.199Z,21.00
2022-11-30T19:56:05.758Z,20.70
2022-11-30T19:58:34.291Z,20.60
2022-11-30T20:01:02.141Z,23.70
2022-11-30T20:03:32.626Z,22.40
2022-11-30T20:06:00.910Z,24.30
2022-11-30T20:08:29.858Z,24.40
2022-11-30T20:10:57.758Z,23.80
2022-11-30T20:13:27.483Z,24.60
2022-11-30T20:15:56.296Z,23.40
2022-11-30T20:18:24.080Z,24.50
2022-11-30T20:20:51.994Z,24.80
2022-11-30T20:23:22.287Z,26.00
2022-11-30T20:25:51.419Z,24.30
2022-11-30T20:28:19.385Z,23.10
2022-11-30T20:30:47.175Z,23.20
2022-11-30T20:33:15.215Z,24.40
2022-11-30T20:35:42.968Z,23.10
2022-11-30T20:38:10.843Z,23.50
2022-11-30T20:40:40.039Z,22.10
2022-11-30T20:43:08.433Z,22.60
2022-11-30T20:45:37.204Z,21.60
2022-11-30T20:48:07.906Z,23.70
2022-11-30T20:50:38.152Z,23.40
2022-11-30T20:53:06.541Z,23.40
2022-11-30T20:55:34.397Z,25.10
2022-11-30T20:58:02.564Z,24.00
2022-11-30T21:00:30.943Z,23.70
2022-11-30T21:02:58.708Z,23.70
2022-11-30T21:05:26.678Z,22.80
2022-11-30T21:07:55.023Z,23.10
2022-11-30T21:10:23.438Z,22.10
2022-11-30T21:12:52.626Z,21.70
2022-11-30T21:15:21.219Z,20.40
2022-11-30T21:17:49.549Z,22.60
2022-11-30T21:20:17.714Z,23.10
2022-11-30T21:22:45.523Z,21.80
2022-11-30T21:25:13.807Z,22.50
2022-11-30T21:27:43.404Z,21.50
2022-11-30T21:30:12.421Z,22.70
2022-11-30T21:32:40.576Z,21.80
2022-11-30T21:35:09.769Z,24.20
2022-11-30T21:37:37.504Z,23.80
2022-11-30T21:40:05.908Z,25.00
2022-11-30T21:42:36.439Z,25.60
2022-11-30T21:45:04.505Z,23.70
2022-11-30T21:47:32.683Z,24.20
2022-11-30T21:50:01.599Z,22.80
2022-11-30T21:52:29.744Z,27.10
2022-11-30T21:54:57.515Z,25.70
2022-11-30T21:57:25.368Z,26.40
2022-11-30T21:59:53.136Z,26.00
2022-11-30T22:02:20.960Z,26.40
2022-11-30T22:04:49.175Z,25.90
2022-11-30T22:07:16.970Z,24.70
2022-11-30T22:09:44.710Z,28.80
2022-11-30T22:12:12.479Z,26.80
2022-11-30T22:14:40.327Z,27.30
2022-11-30T22:17:08.962Z,26.90
2022-11-30T22:19:36.846Z,26.60
2022-11-30T22:22:04.847Z,27.40
2022-11-30T22:24:32.922Z,25.80
2022-11-30T22:27:00.828Z,27.50
2022-11-30T22:29:29.576Z,26.90
2022-11-30T22:31:58.105Z,26.30
2022-11-30T22:34:26.530Z,25.80
2022-11-30T22:36:54.123Z,27.40
2022-11-30T22:39:22.894Z,27.80
2022-11-30T22:41:55.756Z,26.50
2022-11-30T22:44:25.827Z,25.50
2022-11-30T22:46:55.820Z,27.10
2022-11-30T22:49:24.596Z,28.30
2022-11-30T22:51:52.860Z,28.30
2022-11-30T22:54:20.853Z,28.00
2022-11-30T22:56:48.540Z,26.30
2022-11-30T22:59:16.519Z,27.00
2022-11-30T23:01:45.669Z,25.00
2022-11-30T23:04:15.878Z,23.60
2022-11-30T23:06:45.262Z,24.10
2022-11-30T23:09:20.918Z,25.30
2022-11-30T23:11:49.295Z,24.50
2022-11-30T23:14:17.673Z,24.40
2022-11-30T23:16:46.074Z,24.10
2022-11-30T23:19:15.353Z,22.60
2022-11-30T23:21:44.989Z,25.10
2022-11-30T23:24:15.687Z,25.00
2022-11-30T23:26:43.865Z,24.00
2022-11-30T23:29:13.367Z,24.70
2022-11-30T23:31:42.301Z,23.90
2022-11-30T23:34:11.640Z,27.20
2022-11-30T23:36:39.381Z,24.20
2022-11-30T23:39:09.568Z,22.60
2022-11-30T23:41:38.125Z,24.10
2022-11-30T23:44:07.231Z,22.60
2022-11-30T23:46:35.230Z,25.10
2022-11-30T23:49:03.577Z,23.10
2022-11-30T23:51:31.312Z,22.20
2022-11-30T23:53:58.919Z,24.20
2022-11-30T23:56:27.394Z,23.30
2022-11-30T23:58:55.124Z,24.30
